createdAt,value
2023-01-03T00:03:59.704Z,77.57
2023-01-03T00:09:04.655Z,77.18
2023-01-03T00:14:05.403Z,77.22
2023-01-03T00:19:09.621Z,77.28
2023-01-03T00:24:12.267Z,76.31
2023-01-03T00:29:13.328Z,76.63
2023-01-03T00:34:14.112Z,76.78
2023-01-03T00:39:16.225Z,77.09
2023-01-03T00:44:17.048Z,77.22
2023-01-03T00:49:17.922Z,76.90
2023-01-03T00:54:19.985Z,77.47
2023-01-03T00:59:22.473Z,77.68
2023-01-03T01:04:26.350Z,76.67
2023-01-03T01:09:30.629Z,76.92
2023-01-03T01:14:33.409Z,77.04
2023-01-03T01:19:37.468Z,77.12
2023-01-03T01:24:40.116Z,77.05
2023-01-03T01:29:40.869Z,76.68
2023-01-03T01:34:41.609Z,75.72
2023-01-03T01:39:43.751Z,75.19
2023-01-03T01:44:55.647Z,75.27
2023-01-03T01:50:02.321Z,74.61
2023-01-03T01:55:07.760Z,74.02
2023-01-03T02:00:10.674Z,73.77
2023-01-03T02:05:19.738Z,73.30
2023-01-03T02:10:47.981Z,73.00
2023-01-03T02:16:01.521Z,72.76
2023-01-03T02:21:30.207Z,72.97
2023-01-03T02:26:56.364Z,72.19
2023-01-03T02:32:04.360Z,72.62
2023-01-03T02:37:16.018Z,72.44
2023-01-03T02:42:40.768Z,72.42
2023-01-03T02:47:50.232Z,71.92
2023-01-03T02:52:54.029Z,72.16
2023-01-03T02:58:03.318Z,72.73
2023-01-03T03:03:09.800Z,71.68
2023-01-03T03:08:10.615Z,71.38
2023-01-03T03:13:17.147Z,70.94
2023-01-03T03:18:23.280Z,71.10
2023-01-03T03:23:47.591Z,71.28
2023-01-03T03:28:51.658Z,70.64
2023-01-03T03:34:00.198Z,70.51
2023-01-03T03:39:01.356Z,71.34
2023-01-03T03:44:23.473Z,71.45
2023-01-03T03:49:40.785Z,71.07
2023-01-03T03:54:45.353Z,71.23
2023-01-03T03:59:50.855Z,70.61
2023-01-03T04:04:59.062Z,70.14
2023-01-03T04:09:59.896Z,69.82
2023-01-03T04:15:00.559Z,68.73
2023-01-03T04:20:02.586Z,68.56
2023-01-03T04:25:03.305Z,68.65
2023-01-03T04:30:04.627Z,67.99
2023-01-03T04:35:07.295Z,68.34
2023-01-03T04:40:08.947Z,68.53
2023-01-03T04:45:11.127Z,68.10
2023-01-03T04:50:15.840Z,68.26
2023-01-03T04:55:16.940Z,68.06
2023-01-03T05:00:18.014Z,67.90
2023-01-03T05:05:20.001Z,67.81
2023-01-03T05:10:20.777Z,67.53
2023-01-03T05:15:21.481Z,66.99
2023-01-03T05:20:41.675Z,66.61
2023-01-03T05:25:51.512Z,66.33
2023-01-03T05:30:52.236Z,65.96
2023-01-03T05:35:54.237Z,66.25
2023-01-03T05:40:54.878Z,66.64
2023-01-03T05:45:55.622Z,66.88
2023-01-03T05:50:59.259Z,66.80
2023-01-03T05:56:05.536Z,66.93
2023-01-03T06:01:10.138Z,67.13
2023-01-03T06:06:13.723Z,67.70
2023-01-03T06:11:16.668Z,67.48
2023-01-03T06:16:36.896Z,67.50
2023-01-03T06:21:41.398Z,67.50
2023-01-03T06:26:42.123Z,67.73
2023-01-03T06:31:42.801Z,67.79
2023-01-03T06:36:44.758Z,67.81
2023-01-03T06:41:45.434Z,67.31
2023-01-03T06:47:03.908Z,67.06
2023-01-03T06:52:29.920Z,67.06
2023-01-03T06:57:30.610Z,67.33
2023-01-03T07:02:31.418Z,67.29
2023-01-03T07:07:33.668Z,67.22
2023-01-03T07:12:54.208Z,68.06
2023-01-03T07:17:56.346Z,68.36
2023-01-03T07:22:58.381Z,68.88
2023-01-03T07:28:05.791Z,68.96
2023-01-03T07:33:09.267Z,69.60
2023-01-03T07:38:13.350Z,69.55
2023-01-03T07:43:31.794Z,70.15
2023-01-03T07:48:32.581Z,70.56
2023-01-03T07:53:35.558Z,70.67
2023-01-03T07:58:36.554Z,71.08
2023-01-03T08:03:38.346Z,70.75
2023-01-03T08:08:40.833Z,70.98
2023-01-03T08:13:41.960Z,71.31
2023-01-03T08:18:43.391Z,70.84
2023-01-03T08:23:45.730Z,70.67
2023-01-03T08:28:46.516Z,70.11
2023-01-03T08:33:52.838Z,70.64
2023-01-03T08:38:58.727Z,69.80
2023-01-03T08:44:01.740Z,68.76
2023-01-03T08:49:02.484Z,68.48
2023-01-03T08:54:04.574Z,68.75
2023-01-03T08:59:05.357Z,67.91
2023-01-03T09:04:06.315Z,67.28
2023-01-03T09:09:09.641Z,67.09
2023-01-03T09:14:10.407Z,67.18
2023-01-03T09:19:11.101Z,67.00
2023-01-03T09:24:13.193Z,66.58
2023-01-03T09:29:14.100Z,66.83
2023-01-03T09:34:14.876Z,66.15
2023-01-03T09:39:16.898Z,65.68
2023-01-03T09:44:17.978Z,65.33
2023-01-03T09:49:18.649Z,64.72
2023-01-03T09:54:48.434Z,64.63
2023-01-03T10:00:06.657Z,64.04
2023-01-03T10:05:46.166Z,64.33
2023-01-03T10:10:59.047Z,63.38
2023-01-03T10:16:08.038Z,63.58
2023-01-03T10:21:14.530Z,62.45
2023-01-03T10:26:16.623Z,61.39
2023-01-03T10:31:29.360Z,61.32
2023-01-03T10:36:30.070Z,60.68
2023-01-03T10:41:39.648Z,60.86
2023-01-03T10:46:50.787Z,60.75
2023-01-03T10:51:56.468Z,59.65
2023-01-03T10:56:58.533Z,58.82
2023-01-03T11:02:02.378Z,58.43
2023-01-03T11:07:13.452Z,56.78
2023-01-03T11:12:30.044Z,56.22
2023-01-03T11:17:30.987Z,56.21
2023-01-03T11:22:39.835Z,57.36
2023-01-03T11:27:59.509Z,57.38
2023-01-03T11:33:14.385Z,57.63
2023-01-03T11:38:31.763Z,56.91
2023-01-03T11:43:47.566Z,57.17
2023-01-03T11:49:11.460Z,56.49
2023-01-03T11:54:29.332Z,57.06
2023-01-03T11:59:52.825Z,57.12
2023-01-03T12:05:07.582Z,55.99
2023-01-03T12:10:17.263Z,56.87
2023-01-03T12:15:24.032Z,57.40
2023-01-03T12:20:29.206Z,58.10
2023-01-03T12:25:33.473Z,58.44
2023-01-03T12:30:42.635Z,58.96
2023-01-03T12:35:49.309Z,57.72
2023-01-03T12:40:56.072Z,58.45
2023-01-03T12:46:12.077Z,58.84
2023-01-03T12:51:16.317Z,58.93
2023-01-03T12:56:46.221Z,57.95
2023-01-03T13:01:54.205Z,57.75
2023-01-03T13:07:03.162Z,56.43
2023-01-03T13:12:08.603Z,57.85
2023-01-03T13:17:17.407Z,59.14
2023-01-03T13:22:47.382Z,59.20
2023-01-03T13:27:51.700Z,58.34
2023-01-03T13:33:04.604Z,58.60
2023-01-03T13:38:33.056Z,59.39
2023-01-03T13:43:39.773Z,58.95
2023-01-03T13:48:54.859Z,59.34
2023-01-03T13:54:00.259Z,60.34
2023-01-03T13:59:10.383Z,60.70
2023-01-03T14:04:42.498Z,60.36
2023-01-03T14:10:14.065Z,60.65
2023-01-03T14:15:25.342Z,60.71
2023-01-03T14:20:32.069Z,60.60
2023-01-03T14:25:35.599Z,58.84
2023-01-03T14:30:37.484Z,58.96
2023-01-03T14:35:41.912Z,59.03
2023-01-03T14:40:48.342Z,59.74
2023-01-03T14:45:54.135Z,59.79
2023-01-03T14:50:56.878Z,60.62
2023-01-03T14:55:58.963Z,61.54
2023-01-03T15:01:02.044Z,62.08
2023-01-03T15:06:18.235Z,62.73
2023-01-03T15:11:32.221Z,62.87
2023-01-03T15:16:36.418Z,63.18
2023-01-03T15:21:39.980Z,63.87
2023-01-03T15:26:46.195Z,63.44
2023-01-03T15:31:49.678Z,63.55
2023-01-03T15:36:56.246Z,63.63
2023-01-03T15:47:38.876Z,65.21
2023-01-03T15:52:41.078Z,64.91
2023-01-03T15:57:50.413Z,65.36
2023-01-03T16:02:51.592Z,65.36
2023-01-03T16:07:53.833Z,65.69
2023-01-03T16:12:54.521Z,67.19
2023-01-03T16:17:55.299Z,66.35
2023-01-03T16:23:01.449Z,66.84
2023-01-03T16:28:07.025Z,67.24
2023-01-03T16:33:19.343Z,68.13
2023-01-03T16:38:23.338Z,67.94
2023-01-03T16:43:25.169Z,68.33
2023-01-03T16:48:29.868Z,69.12
2023-01-03T16:53:37.380Z,69.29
2023-01-03T16:58:38.512Z,69.10
2023-01-03T17:03:42.006Z,68.75
2023-01-03T17:09:16.286Z,68.54
2023-01-03T17:14:21.839Z,69.33
2023-01-03T17:24:51.087Z,69.85
2023-01-03T17:30:00.375Z,69.13
2023-01-03T17:35:03.116Z,69.68
2023-01-03T17:40:07.266Z,69.95
2023-01-03T17:45:29.772Z,69.67
2023-01-03T17:50:32.224Z,69.59
2023-01-03T17:55:34.333Z,69.89
2023-01-03T18:00:35.813Z,70.15
2023-01-03T18:05:36.704Z,70.05
2023-01-03T18:10:46.503Z,70.17
2023-01-03T18:15:47.813Z,69.84
2023-01-03T18:20:48.945Z,68.98
2023-01-03T18:25:52.260Z,69.17
2023-01-03T18:30:53.734Z,69.19
2023-01-03T18:35:54.897Z,72.88
2023-01-03T18:41:04.326Z,68.80
2023-01-03T18:46:11.941Z,67.73
2023-01-03T18:51:15.951Z,68.02
2023-01-03T18:56:28.334Z,68.83
2023-01-03T19:01:29.189Z,69.23
2023-01-03T19:06:33.223Z,69.24
2023-01-03T19:11:38.569Z,68.79
2023-01-03T19:16:40.523Z,69.36
2023-01-03T19:21:44.347Z,69.75
2023-01-03T19:26:52.912Z,68.17
2023-01-03T19:31:56.322Z,68.39
2023-01-03T19:36:58.874Z,68.81
2023-01-03T19:42:18.683Z,69.14
2023-01-03T19:47:20.935Z,70.09
2023-01-03T19:52:21.806Z,69.30
2023-01-03T19:57:30.188Z,69.50
2023-01-03T20:02:39.260Z,70.22
2023-01-03T20:07:40.894Z,69.91
2023-01-03T20:12:43.313Z,69.46
2023-01-03T20:17:45.163Z,70.56
2023-01-03T20:23:04.745Z,70.25
2023-01-03T20:28:08.285Z,69.57
2023-01-03T20:33:09.010Z,69.15
2023-01-03T20:38:12.365Z,68.49
2023-01-03T20:43:17.292Z,69.35
2023-01-03T20:48:25.060Z,69.00
2023-01-03T20:53:28.075Z,68.60
2023-01-03T20:58:30.131Z,67.82
2023-01-03T21:03:30.872Z,68.50
2023-01-03T21:08:49.627Z,68.08
2023-01-03T21:13:52.015Z,68.03
2023-01-03T21:18:53.855Z,68.55
2023-01-03T21:23:55.436Z,68.70
2023-01-03T21:28:57.977Z,68.07
2023-01-03T21:33:58.711Z,68.36
2023-01-03T21:39:00.609Z,67.59
2023-01-03T21:44:04.391Z,67.43
2023-01-03T21:49:05.105Z,67.45
2023-01-03T21:54:06.585Z,67.31
2023-01-03T21:59:08.591Z,67.97
2023-01-03T22:04:19.556Z,67.82
2023-01-03T22:09:37.976Z,68.38
2023-01-03T22:14:40.130Z,69.31
2023-01-03T22:19:40.928Z,69.13
2023-01-03T22:24:41.712Z,69.49
2023-01-03T22:29:43.816Z,70.28
2023-01-03T22:34:44.514Z,70.46
2023-01-03T22:39:45.327Z,70.13
2023-01-03T22:44:47.543Z,70.31
2023-01-03T22:49:48.978Z,69.82
2023-01-03T22:54:49.952Z,69.62
2023-01-03T22:59:52.007Z,70.17
2023-01-03T23:04:52.671Z,70.23
2023-01-03T23:09:53.350Z,70.01
2023-01-03T23:14:55.345Z,70.60
2023-01-03T23:19:56.072Z,70.94
2023-01-03T23:24:58.094Z,70.49
2023-01-03T23:30:00.120Z,70.91
2023-01-03T23:35:00.829Z,71.51
2023-01-03T23:40:01.547Z,71.45
2023-01-03T23:45:03.602Z,71.60
2023-01-03T23:50:04.543Z,71.90
2023-01-03T23:55:12.211Z,71.30
